sensor_id;sensor_type;location;lat;lon;timestamp;pressure;altitude;pressure_sealevel;temperature;humidity
20023;BME280;10172;42.054;24.546;2022-08-16T00:02:15;97523.41;;;21.70;100.00
20023;BME280;10172;42.054;24.546;2022-08-16T00:04:41;97510.00;;;21.83;100.00
20023;BME280;10172;42.054;24.546;2022-08-16T00:07:06;97507.16;;;21.70;100.00
20023;BME280;10172;42.054;24.546;2022-08-16T00:09:32;97529.97;;;21.82;100.00
20023;BME280;10172;42.054;24.546;2022-08-16T00:11:58;97531.41;;;21.78;100.00
20023;BME280;10172;42.054;24.546;2022-08-16T00:14:27;97493.25;;;21.73;100.00
20023;BME280;10172;42.054;24.546;2022-08-16T00:16:53;97514.56;;;21.61;100.00
20023;BME280;10172;42.054;24.546;2022-08-16T00:19:26;97539.75;;;21.62;100.00
20023;BME280;10172;42.054;24.546;2022-08-16T00:21:53;97527.00;;;21.77;100.00
20023;BME280;10172;42.054;24.546;2022-08-16T00:24:19;97503.72;;;21.97;100.00
20023;BME280;10172;42.054;24.546;2022-08-16T00:26:44;97535.25;;;22.04;100.00
20023;BME280;10172;42.054;24.546;2022-08-16T00:29:12;97514.31;;;21.41;100.00
20023;BME280;10172;42.054;24.546;2022-08-16T00:31:38;97547.19;;;22.10;100.00
20023;BME280;10172;42.054;24.546;2022-08-16T00:34:04;97508.47;;;22.16;100.00
20023;BME280;10172;42.054;24.546;2022-08-16T00:36:29;97512.69;;;22.46;100.00
20023;BME280;10172;42.054;24.546;2022-08-16T00:38:55;97529.13;;;21.96;100.00
20023;BME280;10172;42.054;24.546;2022-08-16T00:41:21;97544.66;;;22.57;99.14
20023;BME280;10172;42.054;24.546;2022-08-16T00:43:46;97548.03;;;22.59;99.14
20023;BME280;10172;42.054;24.546;2022-08-16T00:48:48;97546.00;;;22.96;96.54
20023;BME280;10172;42.054;24.546;2022-08-16T00:51:16;97484.84;;;22.31;100.00
20023;BME280;10172;42.054;24.546;2022-08-16T00:53:41;97522.94;;;22.02;100.00
20023;BME280;10172;42.054;24.546;2022-08-16T00:56:11;97542.38;;;22.33;100.00
20023;BME280;10172;42.054;24.546;2022-08-16T00:58:43;97548.84;;;22.81;97.37
20023;BME280;10172;42.054;24.546;2022-08-16T01:01:10;97548.84;;;22.32;100.00
20023;BME280;10172;42.054;24.546;2022-08-16T01:03:37;97547.50;;;22.49;100.00
20023;BME280;10172;42.054;24.546;2022-08-16T01:06:03;97549.94;;;22.38;100.00
20023;BME280;10172;42.054;24.546;2022-08-16T01:08:33;97520.25;;;22.79;97.37
20023;BME280;10172;42.054;24.546;2022-08-16T01:11:00;97536.63;;;22.64;99.57
20023;BME280;10172;42.054;24.546;2022-08-16T01:13:29;97519.81;;;22.26;100.00
20023;BME280;10172;42.054;24.546;2022-08-16T01:15:59;97541.69;;;22.52;100.00
20023;BME280;10172;42.054;24.546;2022-08-16T01:18:49;97462.50;;;22.01;100.00
20023;BME280;10172;42.054;24.546;2022-08-16T01:21:37;97525.22;;;22.26;100.00
20023;BME280;10172;42.054;24.546;2022-08-16T01:24:16;97544.81;;;22.71;97.33
20023;BME280;10172;42.054;24.546;2022-08-16T01:26:45;97523.63;;;22.59;97.08
20023;BME280;10172;42.054;24.546;2022-08-16T01:29:15;97535.66;;;22.50;99.35
20023;BME280;10172;42.054;24.546;2022-08-16T01:31:42;97528.81;;;22.54;99.24
20023;BME280;10172;42.054;24.546;2022-08-16T01:34:07;97505.38;;;22.19;99.76
20023;BME280;10172;42.054;24.546;2022-08-16T01:36:33;97510.66;;;22.27;100.00
20023;BME280;10172;42.054;24.546;2022-08-16T01:39:07;97514.78;;;22.23;98.73
20023;BME280;10172;42.054;24.546;2022-08-16T01:41:33;97534.19;;;22.27;100.00
20023;BME280;10172;42.054;24.546;2022-08-16T01:43:59;97567.66;;;21.98;100.00
20023;BME280;10172;42.054;24.546;2022-08-16T01:46:28;97558.69;;;22.40;100.00
20023;BME280;10172;42.054;24.546;2022-08-16T01:49:04;97551.72;;;22.73;98.05
20023;BME280;10172;42.054;24.546;2022-08-16T01:51:30;97541.06;;;22.50;97.37
20023;BME280;10172;42.054;24.546;2022-08-16T01:53:56;97554.91;;;22.13;100.00
20023;BME280;10172;42.054;24.546;2022-08-16T01:56:23;97554.13;;;21.98;100.00
20023;BME280;10172;42.054;24.546;2022-08-16T01:58:50;97567.59;;;22.34;100.00
20023;BME280;10172;42.054;24.546;2022-08-16T02:01:15;97559.56;;;22.19;100.00
20023;BME280;10172;42.054;24.546;2022-08-16T02:03:41;97528.00;;;22.12;100.00
20023;BME280;10172;42.054;24.546;2022-08-16T02:06:06;97551.09;;;22.78;98.83
20023;BME280;10172;42.054;24.546;2022-08-16T02:08:32;97570.34;;;22.83;98.01
20023;BME280;10172;42.054;24.546;2022-08-16T02:10:58;97557.94;;;22.46;98.51
20023;BME280;10172;42.054;24.546;2022-08-16T02:13:24;97529.69;;;22.61;97.43
20023;BME280;10172;42.054;24.546;2022-08-16T02:15:49;97536.09;;;23.44;92.90
20023;BME280;10172;42.054;24.546;2022-08-16T02:18:14;97557.94;;;23.83;90.55
20023;BME280;10172;42.054;24.546;2022-08-16T02:20:42;97585.31;;;23.82;90.53
20023;BME280;10172;42.054;24.546;2022-08-16T02:23:10;97577.59;;;23.92;89.49
20023;BME280;10172;42.054;24.546;2022-08-16T02:25:36;97551.47;;;23.91;88.73
20023;BME280;10172;42.054;24.546;2022-08-16T02:28:02;97591.50;;;24.23;87.32
20023;BME280;10172;42.054;24.546;2022-08-16T02:30:30;97583.41;;;23.75;90.21
20023;BME280;10172;42.054;24.546;2022-08-16T02:32:56;97547.88;;;23.70;89.92
20023;BME280;10172;42.054;24.546;2022-08-16T02:35:23;97591.22;;;23.51;91.11
20023;BME280;10172;42.054;24.546;2022-08-16T02:37:51;97587.78;;;23.36;92.16
20023;BME280;10172;42.054;24.546;2022-08-16T02:40:18;97583.28;;;23.49;91.57
20023;BME280;10172;42.054;24.546;2022-08-16T02:42:45;97546.16;;;22.88;93.89
20023;BME280;10172;42.054;24.546;2022-08-16T02:45:14;97590.69;;;22.72;96.79
20023;BME280;10172;42.054;24.546;2022-08-16T02:47:39;97570.81;;;22.23;100.00
20023;BME280;10172;42.054;24.546;2022-08-16T02:50:06;97583.44;;;22.30;100.00
20023;BME280;10172;42.054;24.546;2022-08-16T02:52:32;97585.69;;;22.27;100.00
20023;BME280;10172;42.054;24.546;2022-08-16T02:54:57;97540.09;;;22.30;98.46
20023;BME280;10172;42.054;24.546;2022-08-16T02:57:25;97571.13;;;22.55;97.55
20023;BME280;10172;42.054;24.546;2022-08-16T02:59:50;97549.81;;;22.74;96.25
20023;BME280;10172;42.054;24.546;2022-08-16T03:02:16;97558.53;;;22.69;96.53
20023;BME280;10172;42.054;24.546;2022-08-16T03:04:41;97570.19;;;22.21;100.00
20023;BME280;10172;42.054;24.546;2022-08-16T03:07:07;97550.69;;;20.95;100.00
20023;BME280;10172;42.054;24.546;2022-08-16T03:09:33;97594.28;;;21.29;100.00
20023;BME280;10172;42.054;24.546;2022-08-16T03:11:59;97563.06;;;21.12;100.00
20023;BME280;10172;42.054;24.546;2022-08-16T03:14:24;97564.38;;;21.16;100.00
20023;BME280;10172;42.054;24.546;2022-08-16T03:16:51;97569.38;;;21.49;100.00
20023;BME280;10172;42.054;24.546;2022-08-16T03:19:16;97586.56;;;21.77;100.00
20023;BME280;10172;42.054;24.546;2022-08-16T03:21:42;97568.81;;;21.38;100.00
20023;BME280;10172;42.054;24.546;2022-08-16T03:24:08;97588.19;;;20.98;100.00
20023;BME280;10172;42.054;24.546;2022-08-16T03:26:33;97580.72;;;20.85;100.00
20023;BME280;10172;42.054;24.546;2022-08-16T03:28:59;97615.19;;;21.35;100.00
20023;BME280;10172;42.054;24.546;2022-08-16T03:31:25;97615.25;;;21.57;100.00
20023;BME280;10172;42.054;24.546;2022-08-16T03:33:50;97585.97;;;21.45;100.00
20023;BME280;10172;42.054;24.546;2022-08-16T03:36:16;97612.56;;;21.42;100.00
20023;BME280;10172;42.054;24.546;2022-08-16T03:38:42;97623.38;;;21.42;100.00
20023;BME280;10172;42.054;24.546;2022-08-16T03:41:08;97596.03;;;21.22;100.00
20023;BME280;10172;42.054;24.546;2022-08-16T03:43:34;97622.16;;;21.15;100.00
20023;BME280;10172;42.054;24.546;2022-08-16T03:46:00;97598.25;;;21.04;100.00
20023;BME280;10172;42.054;24.546;2022-08-16T03:48:29;97581.88;;;21.06;100.00
20023;BME280;10172;42.054;24.546;2022-08-16T03:50:58;97597.13;;;20.47;100.00
20023;BME280;10172;42.054;24.546;2022-08-16T03:53:23;97579.44;;;20.96;100.00
20023;BME280;10172;42.054;24.546;2022-08-16T03:55:50;97612.09;;;20.72;100.00
20023;BME280;10172;42.054;24.546;2022-08-16T03:58:15;97563.34;;;20.51;100.00
20023;BME280;10172;42.054;24.546;2022-08-16T04:00:41;97625.16;;;21.50;100.00
20023;BME280;10172;42.054;24.546;2022-08-16T04:03:06;97580.06;;;20.98;100.00
20023;BME280;10172;42.054;24.546;2022-08-16T04:05:34;97629.19;;;22.04;100.00
20023;BME280;10172;42.054;24.546;2022-08-16T04:08:01;97617.84;;;22.57;98.44
20023;BME280;10172;42.054;24.546;2022-08-16T04:10:27;97643.84;;;22.52;98.97
20023;BME280;10172;42.054;24.546;2022-08-16T04:12:52;97619.94;;;21.63;100.00
20023;BME280;10172;42.054;24.546;2022-08-16T04:15:18;97580.19;;;21.49;100.00
20023;BME280;10172;42.054;24.546;2022-08-16T04:17:44;97603.50;;;21.50;100.00
20023;BME280;10172;42.054;24.546;2022-08-16T04:20:12;97631.53;;;22.28;100.00
20023;BME280;10172;42.054;24.546;2022-08-16T04:22:38;97602.69;;;22.21;99.45
20023;BME280;10172;42.054;24.546;2022-08-16T04:25:05;97614.00;;;22.24;100.00
20023;BME280;10172;42.054;24.546;2022-08-16T04:27:31;97631.66;;;22.41;100.00
20023;BME280;10172;42.054;24.546;2022-08-16T04:29:56;97619.63;;;22.93;97.72
20023;BME280;10172;42.054;24.546;2022-08-16T04:32:22;97637.28;;;22.82;99.10
20023;BME280;10172;42.054;24.546;2022-08-16T04:34:48;97650.78;;;23.03;98.36
20023;BME280;10172;42.054;24.546;2022-08-16T04:37:13;97647.03;;;22.34;100.00
20023;BME280;10172;42.054;24.546;2022-08-16T04:39:39;97643.41;;;22.91;97.13
20023;BME280;10172;42.054;24.546;2022-08-16T04:42:04;97645.81;;;23.35;94.97
20023;BME280;10172;42.054;24.546;2022-08-16T04:44:30;97670.00;;;23.30;96.57
20023;BME280;10172;42.054;24.546;2022-08-16T04:46:56;97671.19;;;22.36;100.00
20023;BME280;10172;42.054;24.546;2022-08-16T04:49:22;97667.69;;;22.78;100.00
20023;BME280;10172;42.054;24.546;2022-08-16T04:51:48;97669.69;;;22.12;100.00
20023;BME280;10172;42.054;24.546;2022-08-16T04:54:13;97641.19;;;21.95;100.00
20023;BME280;10172;42.054;24.546;2022-08-16T04:56:39;97623.94;;;22.59;100.00
20023;BME280;10172;42.054;24.546;2022-08-16T04:59:05;97655.28;;;23.17;98.43
20023;BME280;10172;42.054;24.546;2022-08-16T05:01:33;97644.94;;;21.50;100.00
20023;BME280;10172;42.054;24.546;2022-08-16T05:03:59;97683.06;;;21.84;100.00
20023;BME280;10172;42.054;24.546;2022-08-16T05:06:25;97689.34;;;21.99;100.00
20023;BME280;10172;42.054;24.546;2022-08-16T05:08:50;97686.28;;;22.24;100.00
20023;BME280;10172;42.054;24.546;2022-08-16T05:11:16;97688.78;;;22.25;100.00
20023;BME280;10172;42.054;24.546;2022-08-16T05:13:45;97634.09;;;21.65;100.00
20023;BME280;10172;42.054;24.546;2022-08-16T05:16:20;97683.72;;;22.01;100.00
20023;BME280;10172;42.054;24.546;2022-08-16T05:18:47;97637.81;;;21.93;100.00
20023;BME280;10172;42.054;24.546;2022-08-16T05:21:13;97646.97;;;21.92;100.00
20023;BME280;10172;42.054;24.546;2022-08-16T05:23:38;97662.38;;;21.91;100.00
20023;BME280;10172;42.054;24.546;2022-08-16T05:26:04;97652.38;;;21.92;100.00
20023;BME280;10172;42.054;24.546;2022-08-16T05:28:29;97649.97;;;22.18;100.00
20023;BME280;10172;42.054;24.546;2022-08-16T05:30:55;97642.41;;;22.71;100.00
20023;BME280;10172;42.054;24.546;2022-08-16T05:33:20;97639.75;;;23.05;99.96
20023;BME280;10172;42.054;24.546;2022-08-16T05:35:48;97613.38;;;23.54;97.10
20023;BME280;10172;42.054;24.546;2022-08-16T05:38:14;97666.38;;;24.32;93.92
20023;BME280;10172;42.054;24.546;2022-08-16T05:40:40;97648.41;;;23.90;97.29
20023;BME280;10172;42.054;24.546;2022-08-16T05:43:06;97663.53;;;24.06;100.00
20023;BME280;10172;42.054;24.546;2022-08-16T05:45:32;97622.75;;;23.99;95.50
20023;BME280;10172;42.054;24.546;2022-08-16T05:47:57;97668.91;;;24.53;97.12
20023;BME280;10172;42.054;24.546;2022-08-16T05:50:23;97641.34;;;24.95;93.43
20023;BME280;10172;42.054;24.546;2022-08-16T05:52:48;97646.59;;;25.30;92.01
20023;BME280;10172;42.054;24.546;2022-08-16T05:55:14;97666.56;;;25.88;88.15
20023;BME280;10172;42.054;24.546;2022-08-16T05:57:40;97648.69;;;25.98;83.02
20023;BME280;10172;42.054;24.546;2022-08-16T06:00:07;97640.22;;;26.26;79.37
20023;BME280;10172;42.054;24.546;2022-08-16T06:02:41;97629.63;;;26.43;77.17
20023;BME280;10172;42.054;24.546;2022-08-16T06:05:08;97653.84;;;26.64;78.31
20023;BME280;10172;42.054;24.546;2022-08-16T06:07:34;97617.47;;;26.45;78.16
20023;BME280;10172;42.054;24.546;2022-08-16T06:10:00;97646.00;;;26.43;74.65
20023;BME280;10172;42.054;24.546;2022-08-16T06:12:27;97650.59;;;26.42;74.71
20023;BME280;10172;42.054;24.546;2022-08-16T06:14:54;97650.72;;;26.23;71.87
20023;BME280;10172;42.054;24.546;2022-08-16T06:17:23;97617.41;;;26.77;69.29
20023;BME280;10172;42.054;24.546;2022-08-16T06:19:48;97649.44;;;27.44;70.72
20023;BME280;10172;42.054;24.546;2022-08-16T06:22:14;97610.75;;;27.47;71.09
20023;BME280;10172;42.054;24.546;2022-08-16T06:24:39;97651.53;;;27.84;69.78
20023;BME280;10172;42.054;24.546;2022-08-16T06:27:05;97634.59;;;27.94;68.52
20023;BME280;10172;42.054;24.546;2022-08-16T06:29:30;97613.31;;;27.96;69.66
20023;BME280;10172;42.054;24.546;2022-08-16T06:31:56;97608.88;;;28.31;66.35
20023;BME280;10172;42.054;24.546;2022-08-16T06:34:21;97628.41;;;28.65;67.77
20023;BME280;10172;42.054;24.546;2022-08-16T06:36:46;97619.44;;;29.11;65.78
20023;BME280;10172;42.054;24.546;2022-08-16T06:39:12;97616.34;;;29.07;58.65
20023;BME280;10172;42.054;24.546;2022-08-16T06:41:37;97616.13;;;29.09;60.01
20023;BME280;10172;42.054;24.546;2022-08-16T06:44:03;97581.25;;;29.27;60.33
20023;BME280;10172;42.054;24.546;2022-08-16T06:46:31;97560.22;;;29.68;60.63
20023;BME280;10172;42.054;24.546;2022-08-16T06:49:10;97597.88;;;29.84;54.60
20023;BME280;10172;42.054;24.546;2022-08-16T06:51:37;97623.22;;;30.42;56.47
20023;BME280;10172;42.054;24.546;2022-08-16T06:54:03;97612.81;;;30.44;56.65
20023;BME280;10172;42.054;24.546;2022-08-16T06:56:29;97599.31;;;30.14;53.71
20023;BME280;10172;42.054;24.546;2022-08-16T06:58:55;97590.06;;;30.32;54.49
20023;BME280;10172;42.054;24.546;2022-08-16T07:01:21;97601.69;;;30.96;55.31
20023;BME280;10172;42.054;24.546;2022-08-16T07:03:48;97588.16;;;30.77;51.12
20023;BME280;10172;42.054;24.546;2022-08-16T07:06:13;97570.69;;;31.33;52.04
20023;BME280;10172;42.054;24.546;2022-08-16T07:08:39;97606.47;;;31.55;52.17
20023;BME280;10172;42.054;24.546;2022-08-16T07:11:07;97585.69;;;31.09;52.67
20023;BME280;10172;42.054;24.546;2022-08-16T07:13:32;97580.16;;;31.43;54.17
20023;BME280;10172;42.054;24.546;2022-08-16T07:15:58;97592.56;;;31.45;50.82
20023;BME280;10172;42.054;24.546;2022-08-16T07:18:24;97601.56;;;31.95;50.43
20023;BME280;10172;42.054;24.546;2022-08-16T07:20:50;97597.69;;;31.96;49.20
20023;BME280;10172;42.054;24.546;2022-08-16T07:23:18;97609.91;;;32.01;49.68
20023;BME280;10172;42.054;24.546;2022-08-16T07:25:43;97565.19;;;31.50;51.39
20023;BME280;10172;42.054;24.546;2022-08-16T07:28:15;97599.66;;;31.41;50.85
20023;BME280;10172;42.054;24.546;2022-08-16T07:30:42;97601.00;;;31.38;50.09
20023;BME280;10172;42.054;24.546;2022-08-16T07:33:08;97564.88;;;30.80;50.64
20023;BME280;10172;42.054;24.546;2022-08-16T07:35:35;97605.84;;;31.48;47.92
20023;BME280;10172;42.054;24.546;2022-08-16T07:38:01;97580.63;;;31.01;48.99
20023;BME280;10172;42.054;24.546;2022-08-16T07:40:27;97606.66;;;31.32;50.72
20023;BME280;10172;42.054;24.546;2022-08-16T07:42:53;97600.31;;;31.65;48.09
20023;BME280;10172;42.054;24.546;2022-08-16T07:45:19;97582.72;;;31.87;47.35
20023;BME280;10172;42.054;24.546;2022-08-16T07:47:44;97600.50;;;32.23;47.85
20023;BME280;10172;42.054;24.546;2022-08-16T07:50:11;97606.72;;;32.89;45.51
20023;BME280;10172;42.054;24.546;2022-08-16T07:52:38;97599.41;;;33.04;48.10
20023;BME280;10172;42.054;24.546;2022-08-16T07:55:06;97586.06;;;32.86;47.28
20023;BME280;10172;42.054;24.546;2022-08-16T07:57:31;97594.00;;;32.83;46.46
20023;BME280;10172;42.054;24.546;2022-08-16T07:59:57;97565.47;;;32.40;45.47
20023;BME280;10172;42.054;24.546;2022-08-16T08:02:25;97561.28;;;32.33;45.69
20023;BME280;10172;42.054;24.546;2022-08-16T08:04:50;97543.47;;;31.92;45.25
20023;BME280;10172;42.054;24.546;2022-08-16T08:07:16;97598.69;;;32.34;46.39
20023;BME280;10172;42.054;24.546;2022-08-16T08:09:42;97562.06;;;32.55;45.95
20023;BME280;10172;42.054;24.546;2022-08-16T08:12:07;97587.97;;;33.18;45.58
20023;BME280;10172;42.054;24.546;2022-08-16T08:14:33;97590.75;;;33.23;47.33
20023;BME280;10172;42.054;24.546;2022-08-16T08:16:58;97601.81;;;33.64;44.77
20023;BME280;10172;42.054;24.546;2022-08-16T08:19:24;97611.47;;;33.25;43.42
20023;BME280;10172;42.054;24.546;2022-08-16T08:21:50;97592.44;;;32.12;45.46
20023;BME280;10172;42.054;24.546;2022-08-16T08:24:19;97617.38;;;31.33;48.67
20023;BME280;10172;42.054;24.546;2022-08-16T08:26:45;97608.28;;;30.95;50.04
20023;BME280;10172;42.054;24.546;2022-08-16T08:29:10;97596.38;;;31.06;49.80
20023;BME280;10172;42.054;24.546;2022-08-16T08:31:36;97603.19;;;31.96;49.38
20023;BME280;10172;42.054;24.546;2022-08-16T08:34:04;97596.50;;;32.84;45.22
20023;BME280;10172;42.054;24.546;2022-08-16T08:36:33;97610.91;;;33.60;44.38
20023;BME280;10172;42.054;24.546;2022-08-16T08:39:01;97570.16;;;32.67;44.04
20023;BME280;10172;42.054;24.546;2022-08-16T08:41:28;97609.53;;;31.75;44.63
20023;BME280;10172;42.054;24.546;2022-08-16T08:43:55;97604.78;;;31.71;46.36
20023;BME280;10172;42.054;24.546;2022-08-16T08:46:22;97602.63;;;31.73;47.29
20023;BME280;10172;42.054;24.546;2022-08-16T08:48:49;97588.63;;;32.44;46.86
20023;BME280;10172;42.054;24.546;2022-08-16T08:51:15;97601.88;;;31.06;48.15
20023;BME280;10172;42.054;24.546;2022-08-16T08:53:44;97605.31;;;31.89;46.75
20023;BME280;10172;42.054;24.546;2022-08-16T08:56:10;97591.56;;;32.33;45.22
20023;BME280;10172;42.054;24.546;2022-08-16T08:58:36;97570.00;;;32.78;42.86
20023;BME280;10172;42.054;24.546;2022-08-16T09:01:04;97606.28;;;33.34;42.23
20023;BME280;10172;42.054;24.546;2022-08-16T09:03:31;97571.38;;;33.07;41.52
20023;BME280;10172;42.054;24.546;2022-08-16T09:05:57;97598.19;;;32.90;43.47
20023;BME280;10172;42.054;24.546;2022-08-16T09:08:23;97601.72;;;32.32;45.21
20023;BME280;10172;42.054;24.546;2022-08-16T09:10:54;97618.84;;;31.74;46.95
20023;BME280;10172;42.054;24.546;2022-08-16T09:13:21;97621.56;;;32.13;44.62
20023;BME280;10172;42.054;24.546;2022-08-16T09:15:49;97600.38;;;32.88;42.88
20023;BME280;10172;42.054;24.546;2022-08-16T09:18:15;97615.59;;;33.59;41.68
20023;BME280;10172;42.054;24.546;2022-08-16T09:20:45;97617.53;;;32.95;42.56
20023;BME280;10172;42.054;24.546;2022-08-16T09:23:11;97595.69;;;31.49;44.92
20023;BME280;10172;42.054;24.546;2022-08-16T09:25:37;97592.06;;;31.86;44.63
20023;BME280;10172;42.054;24.546;2022-08-16T09:28:03;97577.75;;;32.28;43.29
20023;BME280;10172;42.054;24.546;2022-08-16T09:30:30;97581.63;;;32.85;44.77
20023;BME280;10172;42.054;24.546;2022-08-16T09:32:56;97597.03;;;34.02;42.52
20023;BME280;10172;42.054;24.546;2022-08-16T09:35:21;97585.81;;;34.18;38.13
20023;BME280;10172;42.054;24.546;2022-08-16T09:37:47;97605.59;;;34.82;37.79
20023;BME280;10172;42.054;24.546;2022-08-16T09:40:12;97507.34;;;33.99;36.29
20023;BME280;10172;42.054;24.546;2022-08-16T09:42:38;97595.91;;;34.80;35.59
20023;BME280;10172;42.054;24.546;2022-08-16T09:45:06;97589.84;;;34.93;35.54
20023;BME280;10172;42.054;24.546;2022-08-16T09:47:34;97597.03;;;35.04;35.86
20023;BME280;10172;42.054;24.546;2022-08-16T09:50:14;97598.44;;;35.22;36.07
20023;BME280;10172;42.054;24.546;2022-08-16T09:52:39;97574.63;;;33.83;39.29
20023;BME280;10172;42.054;24.546;2022-08-16T09:55:09;97596.41;;;34.47;38.75
20023;BME280;10172;42.054;24.546;2022-08-16T09:57:36;97594.28;;;32.55;41.36
20023;BME280;10172;42.054;24.546;2022-08-16T10:00:12;97586.50;;;31.81;42.99
20023;BME280;10172;42.054;24.546;2022-08-16T10:02:38;97580.97;;;32.20;43.08
20023;BME280;10172;42.054;24.546;2022-08-16T10:05:05;97577.06;;;33.75;40.60
20023;BME280;10172;42.054;24.546;2022-08-16T10:07:31;97574.66;;;34.80;39.98
20023;BME280;10172;42.054;24.546;2022-08-16T10:09:57;97554.09;;;34.21;39.85
20023;BME280;10172;42.054;24.546;2022-08-16T10:12:27;97576.50;;;34.40;39.68
20023;BME280;10172;42.054;24.546;2022-08-16T10:15:32;97566.66;;;35.19;39.89
20023;BME280;10172;42.054;24.546;2022-08-16T10:17:58;97554.19;;;35.32;37.12
20023;BME280;10172;42.054;24.546;2022-08-16T10:20:23;97563.31;;;34.97;37.23
20023;BME280;10172;42.054;24.546;2022-08-16T10:22:54;97544.50;;;35.60;36.46
20023;BME280;10172;42.054;24.546;2022-08-16T10:25:21;97576.91;;;35.09;37.90
20023;BME280;10172;42.054;24.546;2022-08-16T10:27:47;97565.50;;;35.66;37.42
20023;BME280;10172;42.054;24.546;2022-08-16T10:30:14;97536.72;;;35.67;37.02
20023;BME280;10172;42.054;24.546;2022-08-16T10:32:40;97539.78;;;35.65;36.64
20023;BME280;10172;42.054;24.546;2022-08-16T10:35:06;97561.84;;;34.34;37.34
20023;BME280;10172;42.054;24.546;2022-08-16T10:37:31;97525.59;;;34.05;38.27
20023;BME280;10172;42.054;24.546;2022-08-16T10:39:57;97544.34;;;33.98;37.96
20023;BME280;10172;42.054;24.546;2022-08-16T10:42:24;97542.84;;;33.71;39.47
20023;BME280;10172;42.054;24.546;2022-08-16T10:44:49;97562.16;;;34.48;37.11
20023;BME280;10172;42.054;24.546;2022-08-16T10:47:14;97517.72;;;32.83;39.41
20023;BME280;10172;42.054;24.546;2022-08-16T10:49:40;97541.97;;;32.86;40.45
20023;BME280;10172;42.054;24.546;2022-08-16T10:52:06;97550.59;;;33.32;40.45
20023;BME280;10172;42.054;24.546;2022-08-16T10:54:31;97549.16;;;34.28;38.81
20023;BME280;10172;42.054;24.546;2022-08-16T10:56:58;97561.66;;;33.42;40.54
20023;BME280;10172;42.054;24.546;2022-08-16T10:59:24;97563.25;;;33.69;39.07
20023;BME280;10172;42.054;24.546;2022-08-16T11:01:50;97563.31;;;34.72;37.18
20023;BME280;10172;42.054;24.546;2022-08-16T11:04:15;97536.78;;;35.01;35.10
20023;BME280;10172;42.054;24.546;2022-08-16T11:06:41;97534.03;;;34.61;35.78
20023;BME280;10172;42.054;24.546;2022-08-16T11:09:07;97536.19;;;35.39;35.35
20023;BME280;10172;42.054;24.546;2022-08-16T11:11:32;97537.44;;;35.92;34.60
20023;BME280;10172;42.054;24.546;2022-08-16T11:13:57;97552.81;;;36.24;34.27
20023;BME280;10172;42.054;24.546;2022-08-16T11:16:23;97550.59;;;35.57;35.44
20023;BME280;10172;42.054;24.546;2022-08-16T11:18:48;97528.00;;;33.35;38.07
20023;BME280;10172;42.054;24.546;2022-08-16T11:21:14;97556.94;;;34.61;36.88
20023;BME280;10172;42.054;24.546;2022-08-16T11:23:40;97530.66;;;35.60;36.56
20023;BME280;10172;42.054;24.546;2022-08-16T11:26:06;97534.81;;;35.57;35.58
20023;BME280;10172;42.054;24.546;2022-08-16T11:28:33;97546.72;;;35.42;35.25
20023;BME280;10172;42.054;24.546;2022-08-16T11:30:59;97533.16;;;34.40;36.26
20023;BME280;10172;42.054;24.546;2022-08-16T11:33:24;97536.72;;;33.17;38.84
20023;BME280;10172;42.054;24.546;2022-08-16T11:35:50;97526.94;;;32.67;40.45
20023;BME280;10172;42.054;24.546;2022-08-16T11:38:18;97543.72;;;32.39;41.37
20023;BME280;10172;42.054;24.546;2022-08-16T11:40:47;97528.50;;;33.22;41.22
20023;BME280;10172;42.054;24.546;2022-08-16T11:43:17;97556.28;;;34.09;40.28
20023;BME280;10172;42.054;24.546;2022-08-16T11:45:44;97549.16;;;32.87;41.42
20023;BME280;10172;42.054;24.546;2022-08-16T11:48:10;97542.84;;;32.33;41.53
20023;BME280;10172;42.054;24.546;2022-08-16T11:50:38;97521.75;;;32.44;41.69
20023;BME280;10172;42.054;24.546;2022-08-16T11:53:04;97534.38;;;33.35;42.07
20023;BME280;10172;42.054;24.546;2022-08-16T11:55:31;97516.81;;;34.18;41.62
20023;BME280;10172;42.054;24.546;2022-08-16T11:57:58;97498.34;;;34.24;39.60
20023;BME280;10172;42.054;24.546;2022-08-16T12:00:24;97529.91;;;34.78;39.41
20023;BME280;10172;42.054;24.546;2022-08-16T12:02:50;97487.63;;;34.88;37.81
20023;BME280;10172;42.054;24.546;2022-08-16T12:05:15;97502.56;;;34.87;37.17
20023;BME280;10172;42.054;24.546;2022-08-16T12:07:42;97475.44;;;34.99;36.38
20023;BME280;10172;42.054;24.546;2022-08-16T12:10:11;97506.59;;;35.60;34.76
20023;BME280;10172;42.054;24.546;2022-08-16T12:12:38;97505.53;;;34.25;36.58
20023;BME280;10172;42.054;24.546;2022-08-16T12:15:04;97507.53;;;34.70;37.61
20023;BME280;10172;42.054;24.546;2022-08-16T12:17:30;97506.97;;;34.98;36.29
20023;BME280;10172;42.054;24.546;2022-08-16T12:19:56;97481.63;;;35.75;35.33
20023;BME280;10172;42.054;24.546;2022-08-16T12:22:22;97483.97;;;36.07;35.52
20023;BME280;10172;42.054;24.546;2022-08-16T12:24:50;97484.09;;;36.70;33.43
20023;BME280;10172;42.054;24.546;2022-08-16T12:27:15;97442.97;;;35.60;35.83
20023;BME280;10172;42.054;24.546;2022-08-16T12:29:41;97469.75;;;36.63;34.05
20023;BME280;10172;42.054;24.546;2022-08-16T12:32:07;97425.16;;;35.12;35.07
20023;BME280;10172;42.054;24.546;2022-08-16T12:34:33;97451.75;;;35.72;35.28
20023;BME280;10172;42.054;24.546;2022-08-16T12:37:00;97474.34;;;35.25;36.73
20023;BME280;10172;42.054;24.546;2022-08-16T12:39:27;97475.34;;;35.50;36.21
20023;BME280;10172;42.054;24.546;2022-08-16T12:41:53;97473.28;;;35.80;35.93
20023;BME280;10172;42.054;24.546;2022-08-16T12:44:18;97470.94;;;35.49;36.30
20023;BME280;10172;42.054;24.546;2022-08-16T12:46:44;97464.69;;;34.27;38.32
20023;BME280;10172;42.054;24.546;2022-08-16T12:49:29;97447.31;;;34.57;37.35